sensor_id;sensor_type;location;lat;lon;timestamp;pressure;altitude;pressure_sealevel;temperature;humidity
7182;BME280;3632;42.724;23.298;2023-04-20T00:01:51;94960.41;;;11.40;83.41
7182;BME280;3632;42.724;23.298;2023-04-20T00:04:17;95024.53;;;11.85;83.27
7182;BME280;3632;42.724;23.298;2023-04-20T00:06:45;95018.88;;;11.72;84.23
7182;BME280;3632;42.724;23.298;2023-04-20T00:09:13;95017.44;;;11.79;84.28
7182;BME280;3632;42.724;23.298;2023-04-20T00:11:41;95021.34;;;11.83;83.72
7182;BME280;3632;42.724;23.298;2023-04-20T00:14:07;95028.31;;;11.81;83.56
7182;BME280;3632;42.724;23.298;2023-04-20T00:16:34;95017.16;;;11.82;82.59
7182;BME280;3632;42.724;23.298;2023-04-20T00:19:01;94985.69;;;11.62;82.03
7182;BME280;3632;42.724;23.298;2023-04-20T00:21:28;95000.78;;;11.75;82.09
7182;BME280;3632;42.724;23.298;2023-04-20T00:23:56;95010.72;;;11.78;82.36
7182;BME280;3632;42.724;23.298;2023-04-20T00:26:23;95009.91;;;11.77;81.14
7182;BME280;3632;42.724;23.298;2023-04-20T00:28:50;95039.72;;;11.77;81.55
7182;BME280;3632;42.724;23.298;2023-04-20T00:31:17;95022.94;;;11.74;80.73
7182;BME280;3632;42.724;23.298;2023-04-20T00:33:44;95013.66;;;11.73;81.44
7182;BME280;3632;42.724;23.298;2023-04-20T00:36:11;95008.91;;;11.59;80.97
7182;BME280;3632;42.724;23.298;2023-04-20T00:38:38;95014.13;;;11.48;80.32
7182;BME280;3632;42.724;23.298;2023-04-20T00:41:06;94887.56;;;10.88;80.88
7182;BME280;3632;42.724;23.298;2023-04-20T00:43:33;95006.34;;;11.59;81.22
7182;BME280;3632;42.724;23.298;2023-04-20T00:45:59;95010.66;;;11.49;81.08
7182;BME280;3632;42.724;23.298;2023-04-20T00:48:28;95009.03;;;11.48;81.29
7182;BME280;3632;42.724;23.298;2023-04-20T00:50:54;95012.91;;;11.42;82.04
7182;BME280;3632;42.724;23.298;2023-04-20T00:53:22;95007.00;;;11.42;82.14
7182;BME280;3632;42.724;23.298;2023-04-20T00:55:49;95008.88;;;11.40;81.86
7182;BME280;3632;42.724;23.298;2023-04-20T00:58:17;94687.03;;;9.30;82.85
7182;BME280;3632;42.724;23.298;2023-04-20T01:00:44;95015.03;;;11.37;82.25
7182;BME280;3632;42.724;23.298;2023-04-20T01:03:11;94970.81;;;10.78;82.37
7182;BME280;3632;42.724;23.298;2023-04-20T01:05:37;94956.88;;;10.72;82.59
7182;BME280;3632;42.724;23.298;2023-04-20T01:08:04;95006.56;;;11.27;83.18
7182;BME280;3632;42.724;23.298;2023-04-20T01:10:31;95002.66;;;11.23;83.28
7182;BME280;3632;42.724;23.298;2023-04-20T01:12:58;95006.00;;;11.14;84.99
7182;BME280;3632;42.724;23.298;2023-04-20T01:15:26;94943.81;;;10.66;84.43
7182;BME280;3632;42.724;23.298;2023-04-20T01:17:53;94891.50;;;10.52;85.40
7182;BME280;3632;42.724;23.298;2023-04-20T01:20:22;95007.06;;;11.12;86.30
7182;BME280;3632;42.724;23.298;2023-04-20T01:22:51;94772.56;;;9.10;83.75
7182;BME280;3632;42.724;23.298;2023-04-20T01:25:19;94980.50;;;11.14;83.31
7182;BME280;3632;42.724;23.298;2023-04-20T01:27:46;94848.84;;;9.31;84.87
7182;BME280;3632;42.724;23.298;2023-04-20T01:30:13;95005.88;;;11.25;84.00
7182;BME280;3632;42.724;23.298;2023-04-20T01:32:41;94631.72;;;8.71;83.05
7182;BME280;3632;42.724;23.298;2023-04-20T01:35:08;94577.28;;;8.64;82.73
7182;BME280;3632;42.724;23.298;2023-04-20T01:37:35;94855.25;;;10.48;82.75
7182;BME280;3632;42.724;23.298;2023-04-20T01:40:04;94997.19;;;11.37;82.34
7182;BME280;3632;42.724;23.298;2023-04-20T01:42:31;94983.50;;;11.38;82.78
7182;BME280;3632;42.724;23.298;2023-04-20T01:44:58;94984.19;;;11.40;82.31
7182;BME280;3632;42.724;23.298;2023-04-20T01:47:25;94986.97;;;11.37;82.48
7182;BME280;3632;42.724;23.298;2023-04-20T01:49:52;94975.84;;;11.38;82.30
7182;BME280;3632;42.724;23.298;2023-04-20T01:52:18;94978.94;;;11.42;82.01
7182;BME280;3632;42.724;23.298;2023-04-20T01:54:45;94983.22;;;11.32;81.43
7182;BME280;3632;42.724;23.298;2023-04-20T01:57:13;94993.81;;;11.27;81.98
7182;BME280;3632;42.724;23.298;2023-04-20T01:59:40;94992.84;;;11.19;81.69
7182;BME280;3632;42.724;23.298;2023-04-20T02:02:07;94977.81;;;11.16;82.30
7182;BME280;3632;42.724;23.298;2023-04-20T02:04:34;94873.66;;;10.52;82.38
7182;BME280;3632;42.724;23.298;2023-04-20T02:07:01;94979.69;;;11.14;82.93
7182;BME280;3632;42.724;23.298;2023-04-20T02:09:27;94973.78;;;11.13;82.47
7182;BME280;3632;42.724;23.298;2023-04-20T02:11:54;94984.25;;;11.10;83.41
7182;BME280;3632;42.724;23.298;2023-04-20T02:14:22;94960.97;;;10.94;82.34
7182;BME280;3632;42.724;23.298;2023-04-20T02:16:49;94838.03;;;10.31;82.52
7182;BME280;3632;42.724;23.298;2023-04-20T02:19:17;94976.75;;;11.18;82.33
7182;BME280;3632;42.724;23.298;2023-04-20T02:21:44;94978.38;;;11.19;82.63
7182;BME280;3632;42.724;23.298;2023-04-20T02:24:10;94983.47;;;11.19;82.78
7182;BME280;3632;42.724;23.298;2023-04-20T02:26:37;94958.31;;;10.65;82.60
7182;BME280;3632;42.724;23.298;2023-04-20T02:29:04;94982.38;;;11.22;81.99
7182;BME280;3632;42.724;23.298;2023-04-20T02:31:32;94976.75;;;11.18;82.32
7182;BME280;3632;42.724;23.298;2023-04-20T02:33:59;94977.94;;;11.14;82.11
7182;BME280;3632;42.724;23.298;2023-04-20T02:36:25;94974.69;;;11.12;82.54
7182;BME280;3632;42.724;23.298;2023-04-20T02:38:52;94942.00;;;10.77;81.97
7182;BME280;3632;42.724;23.298;2023-04-20T02:41:19;94860.28;;;10.29;81.95
7182;BME280;3632;42.724;23.298;2023-04-20T02:43:46;94443.44;;;7.63;81.64
7182;BME280;3632;42.724;23.298;2023-04-20T02:46:12;94974.81;;;11.01;81.78
7182;BME280;3632;42.724;23.298;2023-04-20T02:48:40;94974.00;;;11.00;81.82
7182;BME280;3632;42.724;23.298;2023-04-20T02:51:07;94971.03;;;10.95;82.12
7182;BME280;3632;42.724;23.298;2023-04-20T02:53:34;94978.28;;;11.00;82.13
7182;BME280;3632;42.724;23.298;2023-04-20T02:56:01;94977.91;;;11.05;82.83
7182;BME280;3632;42.724;23.298;2023-04-20T02:58:27;94981.97;;;11.07;82.50
7182;BME280;3632;42.724;23.298;2023-04-20T03:00:58;94977.25;;;11.12;81.79
7182;BME280;3632;42.724;23.298;2023-04-20T03:03:25;94604.31;;;8.65;81.41
7182;BME280;3632;42.724;23.298;2023-04-20T03:05:54;94803.59;;;10.06;81.37
7182;BME280;3632;42.724;23.298;2023-04-20T03:08:21;94981.84;;;11.18;81.46
7182;BME280;3632;42.724;23.298;2023-04-20T03:10:48;94977.16;;;11.23;81.65
7182;BME280;3632;42.724;23.298;2023-04-20T03:13:14;94911.09;;;9.89;80.58
7182;BME280;3632;42.724;23.298;2023-04-20T03:15:42;94974.63;;;11.23;80.99
7182;BME280;3632;42.724;23.298;2023-04-20T03:18:09;94977.41;;;11.20;80.57
7182;BME280;3632;42.724;23.298;2023-04-20T03:20:36;94883.84;;;10.62;80.84
7182;BME280;3632;42.724;23.298;2023-04-20T03:23:04;95002.53;;;11.15;81.77
7182;BME280;3632;42.724;23.298;2023-04-20T03:25:31;94983.47;;;11.19;81.67
7182;BME280;3632;42.724;23.298;2023-04-20T03:27:57;94985.06;;;11.20;81.66
7182;BME280;3632;42.724;23.298;2023-04-20T03:30:24;94990.44;;;11.17;81.60
7182;BME280;3632;42.724;23.298;2023-04-20T03:32:51;94983.47;;;11.19;81.49
7182;BME280;3632;42.724;23.298;2023-04-20T03:35:18;94970.28;;;11.14;81.74
7182;BME280;3632;42.724;23.298;2023-04-20T03:37:45;94983.06;;;11.24;81.31
7182;BME280;3632;42.724;23.298;2023-04-20T03:40:13;94735.25;;;8.90;81.55
7182;BME280;3632;42.724;23.298;2023-04-20T03:42:40;94820.34;;;10.30;81.39
7182;BME280;3632;42.724;23.298;2023-04-20T03:45:08;94985.91;;;11.30;81.63
7182;BME280;3632;42.724;23.298;2023-04-20T03:47:34;94748.03;;;9.81;81.99
7182;BME280;3632;42.724;23.298;2023-04-20T03:50:01;95017.13;;;10.73;81.93
7182;BME280;3632;42.724;23.298;2023-04-20T03:52:28;94950.53;;;11.16;81.53
7182;BME280;3632;42.724;23.298;2023-04-20T03:54:55;94951.59;;;11.04;81.22
7182;BME280;3632;42.724;23.298;2023-04-20T03:57:23;94409.16;;;7.68;81.03
7182;BME280;3632;42.724;23.298;2023-04-20T03:59:50;94984.50;;;11.17;81.39
7182;BME280;3632;42.724;23.298;2023-04-20T04:02:17;94956.44;;;10.67;80.87
7182;BME280;3632;42.724;23.298;2023-04-20T04:04:43;94988.81;;;11.16;81.11
7182;BME280;3632;42.724;23.298;2023-04-20T04:07:10;95024.25;;;11.10;81.63
7182;BME280;3632;42.724;23.298;2023-04-20T04:09:37;94995.25;;;11.20;81.25
7182;BME280;3632;42.724;23.298;2023-04-20T04:12:04;94861.38;;;10.36;80.44
7182;BME280;3632;42.724;23.298;2023-04-20T04:14:33;94989.50;;;11.18;80.59
7182;BME280;3632;42.724;23.298;2023-04-20T04:17:00;94995.94;;;11.22;80.14
7182;BME280;3632;42.724;23.298;2023-04-20T04:19:26;94709.44;;;9.36;80.87
7182;BME280;3632;42.724;23.298;2023-04-20T04:21:53;94755.72;;;9.60;81.66
7182;BME280;3632;42.724;23.298;2023-04-20T04:24:20;94989.88;;;11.14;82.15
7182;BME280;3632;42.724;23.298;2023-04-20T04:26:47;94997.97;;;11.19;82.44
7182;BME280;3632;42.724;23.298;2023-04-20T04:29:14;95003.88;;;11.19;82.83
7182;BME280;3632;42.724;23.298;2023-04-20T04:31:42;95003.44;;;11.14;82.57
7182;BME280;3632;42.724;23.298;2023-04-20T04:34:08;95004.09;;;11.16;82.16
7182;BME280;3632;42.724;23.298;2023-04-20T04:36:36;95003.44;;;11.14;83.47
7182;BME280;3632;42.724;23.298;2023-04-20T04:39:03;95006.84;;;11.24;83.00
7182;BME280;3632;42.724;23.298;2023-04-20T04:41:30;95019.19;;;11.29;82.26
7182;BME280;3632;42.724;23.298;2023-04-20T04:43:57;94570.44;;;8.35;81.21
7182;BME280;3632;42.724;23.298;2023-04-20T04:46:23;95008.34;;;11.36;81.41
7182;BME280;3632;42.724;23.298;2023-04-20T04:48:53;95009.28;;;11.35;81.63
7182;BME280;3632;42.724;23.298;2023-04-20T04:51:20;95047.00;;;11.41;80.86
7182;BME280;3632;42.724;23.298;2023-04-20T04:53:47;95012.25;;;11.40;80.59
7182;BME280;3632;42.724;23.298;2023-04-20T04:56:14;95008.22;;;11.48;80.32
7182;BME280;3632;42.724;23.298;2023-04-20T04:58:42;94966.28;;;11.12;80.02
7182;BME280;3632;42.724;23.298;2023-04-20T05:01:09;95011.13;;;11.33;79.28
7182;BME280;3632;42.724;23.298;2023-04-20T05:03:36;95023.53;;;11.48;79.23
7182;BME280;3632;42.724;23.298;2023-04-20T05:06:05;95020.59;;;11.52;79.32
7182;BME280;3632;42.724;23.298;2023-04-20T05:08:32;95020.19;;;11.57;79.24
7182;BME280;3632;42.724;23.298;2023-04-20T05:10:59;94938.03;;;10.94;79.23
7182;BME280;3632;42.724;23.298;2023-04-20T05:13:25;94587.88;;;8.69;79.05
7182;BME280;3632;42.724;23.298;2023-04-20T05:15:52;94976.28;;;10.94;79.33
7182;BME280;3632;42.724;23.298;2023-04-20T05:18:19;95019.38;;;11.56;80.72
7182;BME280;3632;42.724;23.298;2023-04-20T05:20:46;95024.50;;;11.66;79.90
7182;BME280;3632;42.724;23.298;2023-04-20T05:23:14;94911.47;;;10.96;79.20
7182;BME280;3632;42.724;23.298;2023-04-20T05:25:41;94883.13;;;10.80;78.47
7182;BME280;3632;42.724;23.298;2023-04-20T05:28:08;95031.47;;;11.64;78.32
7182;BME280;3632;42.724;23.298;2023-04-20T05:30:35;95049.91;;;11.58;78.23
7182;BME280;3632;42.724;23.298;2023-04-20T05:33:01;95031.63;;;11.62;78.72
7182;BME280;3632;42.724;23.298;2023-04-20T05:35:28;95031.63;;;11.62;79.18
7182;BME280;3632;42.724;23.298;2023-04-20T05:37:55;94692.38;;;9.57;79.25
7182;BME280;3632;42.724;23.298;2023-04-20T05:40:26;95039.72;;;11.77;79.38
7182;BME280;3632;42.724;23.298;2023-04-20T05:42:53;95030.19;;;11.79;79.00
7182;BME280;3632;42.724;23.298;2023-04-20T05:45:20;95053.72;;;11.82;79.32
7182;BME280;3632;42.724;23.298;2023-04-20T05:47:53;95014.31;;;11.66;78.64
7182;BME280;3632;42.724;23.298;2023-04-20T05:50:20;95039.22;;;11.83;79.29
7182;BME280;3632;42.724;23.298;2023-04-20T05:52:47;95028.19;;;11.82;79.32
7182;BME280;3632;42.724;23.298;2023-04-20T05:55:14;94986.75;;;11.60;81.04
7182;BME280;3632;42.724;23.298;2023-04-20T05:57:42;95022.03;;;11.35;81.49
7182;BME280;3632;42.724;23.298;2023-04-20T06:00:11;94760.28;;;9.15;80.79
7182;BME280;3632;42.724;23.298;2023-04-20T06:02:38;95034.75;;;11.75;81.38
7182;BME280;3632;42.724;23.298;2023-04-20T06:05:06;95031.41;;;11.75;81.99
7182;BME280;3632;42.724;23.298;2023-04-20T06:07:34;95034.09;;;11.83;82.20
7182;BME280;3632;42.724;23.298;2023-04-20T06:10:01;95028.44;;;11.89;82.63
7182;BME280;3632;42.724;23.298;2023-04-20T06:12:29;95033.56;;;11.89;82.91
7182;BME280;3632;42.724;23.298;2023-04-20T06:14:57;95032.22;;;11.85;83.75
7182;BME280;3632;42.724;23.298;2023-04-20T06:17:24;94974.66;;;11.62;83.89
7182;BME280;3632;42.724;23.298;2023-04-20T06:19:51;95038.13;;;11.95;82.72
7182;BME280;3632;42.724;23.298;2023-04-20T06:22:18;95044.19;;;11.94;83.00
7182;BME280;3632;42.724;23.298;2023-04-20T06:24:44;95041.88;;;11.72;84.89
7182;BME280;3632;42.724;23.298;2023-04-20T06:27:11;94903.94;;;10.95;83.81
7182;BME280;3632;42.724;23.298;2023-04-20T06:29:38;95042.19;;;11.88;83.71
7182;BME280;3632;42.724;23.298;2023-04-20T06:32:06;94968.63;;;11.53;84.14
7182;BME280;3632;42.724;23.298;2023-04-20T06:34:33;95046.31;;;11.89;83.97
7182;BME280;3632;42.724;23.298;2023-04-20T06:37:00;95039.75;;;12.15;84.04
7182;BME280;3632;42.724;23.298;2023-04-20T06:39:27;95049.16;;;12.24;86.16
7182;BME280;3632;42.724;23.298;2023-04-20T06:41:53;94710.09;;;10.08;84.85
7182;BME280;3632;42.724;23.298;2023-04-20T06:44:21;95053.16;;;11.88;85.98
7182;BME280;3632;42.724;23.298;2023-04-20T06:46:47;95095.91;;;11.77;89.03
7182;BME280;3632;42.724;23.298;2023-04-20T06:49:15;95054.53;;;11.83;86.42
7182;BME280;3632;42.724;23.298;2023-04-20T06:51:42;95061.22;;;11.84;87.20
7182;BME280;3632;42.724;23.298;2023-04-20T06:54:09;94913.19;;;10.96;86.94
7182;BME280;3632;42.724;23.298;2023-04-20T06:56:36;95057.22;;;11.91;86.99
7182;BME280;3632;42.724;23.298;2023-04-20T06:59:02;94714.59;;;8.84;86.82
7182;BME280;3632;42.724;23.298;2023-04-20T07:01:29;95058.84;;;11.92;86.84
7182;BME280;3632;42.724;23.298;2023-04-20T07:03:56;95068.50;;;11.98;86.95
7182;BME280;3632;42.724;23.298;2023-04-20T07:06:24;94977.88;;;11.44;86.48
7182;BME280;3632;42.724;23.298;2023-04-20T07:08:52;95078.19;;;11.95;86.36
7182;BME280;3632;42.724;23.298;2023-04-20T07:11:18;94968.31;;;11.46;85.77
7182;BME280;3632;42.724;23.298;2023-04-20T07:13:45;95079.28;;;12.11;85.23
7182;BME280;3632;42.724;23.298;2023-04-20T07:16:14;95164.09;;;12.05;84.73
7182;BME280;3632;42.724;23.298;2023-04-20T07:18:41;94995.78;;;11.73;85.10
7182;BME280;3632;42.724;23.298;2023-04-20T07:21:08;95066.09;;;12.25;84.80
7182;BME280;3632;42.724;23.298;2023-04-20T07:23:36;95069.19;;;12.39;84.17
7182;BME280;3632;42.724;23.298;2023-04-20T07:26:02;94989.34;;;11.98;83.44
7182;BME280;3632;42.724;23.298;2023-04-20T07:28:30;94730.28;;;10.40;83.27
7182;BME280;3632;42.724;23.298;2023-04-20T07:30:56;95069.91;;;12.77;82.63
7182;BME280;3632;42.724;23.298;2023-04-20T07:33:23;94946.97;;;12.05;81.60
7182;BME280;3632;42.724;23.298;2023-04-20T07:35:50;95066.94;;;12.82;82.49
7182;BME280;3632;42.724;23.298;2023-04-20T07:38:17;95018.94;;;12.76;80.52
7182;BME280;3632;42.724;23.298;2023-04-20T07:40:45;94584.53;;;10.27;79.77
7182;BME280;3632;42.724;23.298;2023-04-20T07:43:12;95064.69;;;13.25;76.32
7182;BME280;3632;42.724;23.298;2023-04-20T07:45:38;94951.56;;;12.58;77.63
7182;BME280;3632;42.724;23.298;2023-04-20T07:48:06;95062.16;;;13.53;76.87
7182;BME280;3632;42.724;23.298;2023-04-20T07:50:33;95069.91;;;13.61;76.27
7182;BME280;3632;42.724;23.298;2023-04-20T07:53:00;94517.41;;;10.19;74.76
7182;BME280;3632;42.724;23.298;2023-04-20T07:55:27;95062.44;;;13.13;77.06
7182;BME280;3632;42.724;23.298;2023-04-20T07:57:56;95067.22;;;13.35;76.78
7182;BME280;3632;42.724;23.298;2023-04-20T08:00:23;94593.53;;;10.50;74.83
7182;BME280;3632;42.724;23.298;2023-04-20T08:02:50;95002.41;;;13.35;75.04
7182;BME280;3632;42.724;23.298;2023-04-20T08:05:16;94956.72;;;13.12;75.08
7182;BME280;3632;42.724;23.298;2023-04-20T08:07:43;95050.09;;;13.81;75.36
7182;BME280;3632;42.724;23.298;2023-04-20T08:10:10;95064.47;;;13.91;74.44
7182;BME280;3632;42.724;23.298;2023-04-20T08:12:37;94948.00;;;13.05;74.79
7182;BME280;3632;42.724;23.298;2023-04-20T08:15:07;95011.22;;;13.50;73.81
7182;BME280;3632;42.724;23.298;2023-04-20T08:17:34;95011.41;;;13.39;75.70
7182;BME280;3632;42.724;23.298;2023-04-20T08:20:01;95069.03;;;13.52;75.67
7182;BME280;3632;42.724;23.298;2023-04-20T08:22:30;95066.13;;;13.38;72.98
7182;BME280;3632;42.724;23.298;2023-04-20T08:24:57;95068.19;;;13.24;73.64
7182;BME280;3632;42.724;23.298;2023-04-20T08:27:24;95008.94;;;12.82;73.42
7182;BME280;3632;42.724;23.298;2023-04-20T08:29:54;95067.97;;;13.08;73.52
7182;BME280;3632;42.724;23.298;2023-04-20T08:32:22;95085.34;;;13.05;73.70
7182;BME280;3632;42.724;23.298;2023-04-20T08:34:51;95066.22;;;13.09;73.89
7182;BME280;3632;42.724;23.298;2023-04-20T08:37:18;95077.78;;;13.03;73.92
7182;BME280;3632;42.724;23.298;2023-04-20T08:39:45;95060.28;;;13.08;74.03
7182;BME280;3632;42.724;23.298;2023-04-20T08:42:11;95061.50;;;13.04;74.34
7182;BME280;3632;42.724;23.298;2023-04-20T08:44:38;95060.56;;;13.05;74.65
7182;BME280;3632;42.724;23.298;2023-04-20T08:47:08;95068.09;;;13.16;75.25
7182;BME280;3632;42.724;23.298;2023-04-20T08:49:37;95062.41;;;13.22;74.50
7182;BME280;3632;42.724;23.298;2023-04-20T08:52:04;95075.63;;;13.18;73.80
7182;BME280;3632;42.724;23.298;2023-04-20T08:54:32;95066.91;;;13.11;73.32
7182;BME280;3632;42.724;23.298;2023-04-20T08:56:58;94499.72;;;9.59;73.32
7182;BME280;3632;42.724;23.298;2023-04-20T08:59:26;95072.13;;;13.09;73.96
7182;BME280;3632;42.724;23.298;2023-04-20T09:01:52;95069.19;;;13.14;74.00
7182;BME280;3632;42.724;23.298;2023-04-20T09:04:20;95011.06;;;12.87;73.49
7182;BME280;3632;42.724;23.298;2023-04-20T09:06:50;94971.09;;;12.49;73.77
7182;BME280;3632;42.724;23.298;2023-04-20T09:09:18;95064.69;;;13.25;73.33
7182;BME280;3632;42.724;23.298;2023-04-20T09:11:46;95005.47;;;12.74;73.03
7182;BME280;3632;42.724;23.298;2023-04-20T09:14:14;95070.81;;;13.42;72.72
7182;BME280;3632;42.724;23.298;2023-04-20T09:16:48;95069.09;;;13.60;71.31
7182;BME280;3632;42.724;23.298;2023-04-20T09:19:21;95055.72;;;13.66;71.81
7182;BME280;3632;42.724;23.298;2023-04-20T09:21:51;95070.81;;;13.69;71.26
7182;BME280;3632;42.724;23.298;2023-04-20T09:24:19;94481.75;;;10.28;70.79
7182;BME280;3632;42.724;23.298;2023-04-20T09:26:46;95075.06;;;13.96;69.45
7182;BME280;3632;42.724;23.298;2023-04-20T09:29:16;94843.09;;;13.05;68.60
7182;BME280;3632;42.724;23.298;2023-04-20T09:31:43;95067.09;;;14.35;70.52
7182;BME280;3632;42.724;23.298;2023-04-20T09:34:11;94999.13;;;14.74;66.84
7182;BME280;3632;42.724;23.298;2023-04-20T09:36:39;95050.84;;;14.87;66.39
7182;BME280;3632;42.724;23.298;2023-04-20T09:39:08;95046.22;;;14.91;66.72
7182;BME280;3632;42.724;23.298;2023-04-20T09:41:37;94804.25;;;13.63;67.26
7182;BME280;3632;42.724;23.298;2023-04-20T09:44:06;95104.28;;;15.18;64.33
7182;BME280;3632;42.724;23.298;2023-04-20T09:46:34;94981.88;;;14.84;64.75
7182;BME280;3632;42.724;23.298;2023-04-20T09:49:02;95041.34;;;15.47;63.69
7182;BME280;3632;42.724;23.298;2023-04-20T09:51:31;95030.72;;;15.42;64.29
7182;BME280;3632;42.724;23.298;2023-04-20T09:54:00;95031.75;;;15.58;63.33
7182;BME280;3632;42.724;23.298;2023-04-20T09:56:30;94875.16;;;14.66;62.42
7182;BME280;3632;42.724;23.298;2023-04-20T09:58:58;94897.22;;;14.92;61.24
7182;BME280;3632;42.724;23.298;2023-04-20T10:01:25;95022.88;;;16.18;61.38
7182;BME280;3632;42.724;23.298;2023-04-20T10:03:52;94938.66;;;15.88;58.70
7182;BME280;3632;42.724;23.298;2023-04-20T10:06:20;95029.31;;;16.55;59.25
7182;BME280;3632;42.724;23.298;2023-04-20T10:08:47;95012.88;;;16.88;58.24
7182;BME280;3632;42.724;23.298;2023-04-20T10:11:25;95014.31;;;16.90;57.11
7182;BME280;3632;42.724;23.298;2023-04-20T10:13:55;95016.63;;;16.69;57.00
7182;BME280;3632;42.724;23.298;2023-04-20T10:16:22;94984.59;;;16.64;57.53
7182;BME280;3632;42.724;23.298;2023-04-20T10:18:56;94602.25;;;13.52;58.08
7182;BME280;3632;42.724;23.298;2023-04-20T10:21:23;94996.44;;;16.89;57.96
7182;BME280;3632;42.724;23.298;2023-04-20T10:23:51;95028.19;;;16.49;57.54
7182;BME280;3632;42.724;23.298;2023-04-20T10:26:18;95002.13;;;16.68;57.57
7182;BME280;3632;42.724;23.298;2023-04-20T10:28:45;95003.56;;;16.87;56.93
7182;BME280;3632;42.724;23.298;2023-04-20T10:31:13;94888.50;;;16.32;55.88
7182;BME280;3632;42.724;23.298;2023-04-20T10:33:51;95000.25;;;17.17;54.66
7182;BME280;3632;42.724;23.298;2023-04-20T10:36:28;95000.16;;;16.86;55.95
7182;BME280;3632;42.724;23.298;2023-04-20T10:38:55;95029.44;;;16.85;56.53
7182;BME280;3632;42.724;23.298;2023-04-20T10:41:22;94930.66;;;16.86;56.70
7182;BME280;3632;42.724;23.298;2023-04-20T10:43:50;94992.91;;;17.76;53.43
7182;BME280;3632;42.724;23.298;2023-04-20T10:46:19;95001.94;;;18.40;53.04
7182;BME280;3632;42.724;23.298;2023-04-20T10:48:53;94941.50;;;17.97;52.06
7182;BME280;3632;42.724;23.298;2023-04-20T10:51:20;94990.16;;;18.23;51.84
7182;BME280;3632;42.724;23.298;2023-04-20T10:53:59;94994.66;;;18.21;51.47
7182;BME280;3632;42.724;23.298;2023-04-20T10:56:26;95006.03;;;17.58;52.50
7182;BME280;3632;42.724;23.298;2023-04-20T10:58:53;95005.97;;;17.27;53.12
7182;BME280;3632;42.724;23.298;2023-04-20T11:01:21;94947.44;;;16.74;52.01
7182;BME280;3632;42.724;23.298;2023-04-20T11:03:49;94994.09;;;16.79;53.52
7182;BME280;3632;42.724;23.298;2023-04-20T11:06:17;94989.50;;;17.06;53.63
7182;BME280;3632;42.724;23.298;2023-04-20T11:08:44;94992.63;;;17.24;52.67
7182;BME280;3632;42.724;23.298;2023-04-20T11:11:18;94958.28;;;17.70;51.99
7182;BME280;3632;42.724;23.298;2023-04-20T11:13:45;94974.75;;;18.52;49.77
7182;BME280;3632;42.724;23.298;2023-04-20T11:16:13;95037.84;;;19.02;48.85
7182;BME280;3632;42.724;23.298;2023-04-20T11:18:52;94960.00;;;18.76;49.12
7182;BME280;3632;42.724;23.298;2023-04-20T11:21:20;94929.66;;;18.92;48.94
7182;BME280;3632;42.724;23.298;2023-04-20T11:23:47;94910.78;;;18.77;48.91
7182;BME280;3632;42.724;23.298;2023-04-20T11:26:14;94906.44;;;18.11;49.09
7182;BME280;3632;42.724;23.298;2023-04-20T11:28:52;94958.97;;;18.10;48.68
7182;BME280;3632;42.724;23.298;2023-04-20T11:31:19;94807.47;;;17.06;50.16
7182;BME280;3632;42.724;23.298;2023-04-20T11:33:53;94961.28;;;17.82;50.60
7182;BME280;3632;42.724;23.298;2023-04-20T11:36:21;94971.19;;;17.40;50.13
7182;BME280;3632;42.724;23.298;2023-04-20T11:38:48;94980.88;;;17.29;51.35
7182;BME280;3632;42.724;23.298;2023-04-20T11:41:16;94957.72;;;17.21;51.69
7182;BME280;3632;42.724;23.298;2023-04-20T11:43:43;94972.44;;;17.35;51.24
7182;BME280;3632;42.724;23.298;2023-04-20T11:46:14;94972.25;;;17.45;51.53
7182;BME280;3632;42.724;23.298;2023-04-20T11:48:41;94520.75;;;14.62;51.70
7182;BME280;3632;42.724;23.298;2023-04-20T11:51:10;94958.44;;;17.38;51.34
7182;BME280;3632;42.724;23.298;2023-04-20T11:53:37;94960.38;;;17.36;50.72
7182;BME280;3632;42.724;23.298;2023-04-20T11:56:04;95004.16;;;17.05;51.42
7182;BME280;3632;42.724;23.298;2023-04-20T11:58:30;94956.53;;;17.01;52.63
7182;BME280;3632;42.724;23.298;2023-04-20T12:00:57;94966.09;;;16.76;55.33
7182;BME280;3632;42.724;23.298;2023-04-20T12:03:24;94967.91;;;16.43;56.63
7182;BME280;3632;42.724;23.298;2023-04-20T12:05:51;94973.88;;;16.12;56.49
7182;BME280;3632;42.724;23.298;2023-04-20T12:08:19;94962.91;;;16.26;57.42
7182;BME280;3632;42.724;23.298;2023-04-20T12:10:46;94967.13;;;15.94;58.81
7182;BME280;3632;42.724;23.298;2023-04-20T12:13:12;94968.75;;;16.04;59.69
7182;BME280;3632;42.724;23.298;2023-04-20T12:15:40;94969.84;;;15.93;60.84
7182;BME280;3632;42.724;23.298;2023-04-20T12:18:06;94965.03;;;15.74;62.15
7182;BME280;3632;42.724;23.298;2023-04-20T12:20:33;94968.81;;;15.53;61.65
7182;BME280;3632;42.724;23.298;2023-04-20T12:23:00;94964.00;;;15.50;64.11
7182;BME280;3632;42.724;23.298;2023-04-20T12:25:28;94953.75;;;15.59;61.59
7182;BME280;3632;42.724;23.298;2023-04-20T12:27:55;94878.72;;;15.31;58.75
7182;BME280;3632;42.724;23.298;2023-04-20T12:30:25;94959.41;;;16.03;58.58
7182;BME280;3632;42.724;23.298;2023-04-20T12:32:52;94960.19;;;16.43;58.10
7182;BME280;3632;42.724;23.298;2023-04-20T12:35:20;94910.31;;;16.53;57.30
7182;BME280;3632;42.724;23.298;2023-04-20T12:37:47;94938.69;;;17.61;57.48
7182;BME280;3632;42.724;23.298;2023-04-20T12:40:14;94874.06;;;18.23;54.42
7182;BME280;3632;42.724;23.298;2023-04-20T12:42:42;94921.09;;;19.42;52.93
7182;BME280;3632;42.724;23.298;2023-04-20T12:45:09;94968.28;;;18.86;49.36
7182;BME280;3632;42.724;23.298;2023-04-20T12:47:36;94718.44;;;17.49;50.63
7182;BME280;3632;42.724;23.298;2023-04-20T12:50:04;94752.19;;;17.40;51.00
7182;BME280;3632;42.724;23.298;2023-04-20T12:52:31;94869.03;;;17.92;50.66
7182;BME280;3632;42.724;23.298;2023-04-20T12:54:58;94930.81;;;18.60;51.13
7182;BME280;3632;42.724;23.298;2023-04-20T12:57:25;94848.59;;;17.91;51.91
7182;BME280;3632;42.724;23.298;2023-04-20T12:59:53;94943.31;;;18.49;52.01
7182;BME280;3632;42.724;23.298;2023-04-20T13:02:20;94929.47;;;18.64;52.27
7182;BME280;3632;42.724;23.298;2023-04-20T13:04:47;94941.81;;;18.54;52.17
7182;BME280;3632;42.724;23.298;2023-04-20T13:07:14;94923.16;;;18.82;52.80
7182;BME280;3632;42.724;23.298;2023-04-20T13:09:41;94817.41;;;18.15;51.94
7182;BME280;3632;42.724;23.298;2023-04-20T13:12:07;94928.41;;;18.74;52.87
7182;BME280;3632;42.724;23.298;2023-04-20T13:14:34;94930.56;;;18.47;52.89